This is the latest recevied weather packets stored in our database for station/object KC4MCQ-10. If no packets are shown the sender has not sent any weather packets the latest 10 day(s).
| Time | Temp. | Humidity | Pressure | Rain* | Wind** | Luminosity | Snow |
|---|---|---|---|---|---|---|---|
| 1788103514 | 30° C | 72% | 1019.3 hPa | 4.06 mm | 0.45 m/s, 173° | - | - |
| 1788102910 | 30.56° C | 74% | 1019.4 hPa | 4.06 mm | 1.34 m/s, 208° | - | - |
| 1788102309 | 30° C | 75% | 1019.5 hPa | 4.06 mm | 0.45 m/s, 134° | - | - |
| 1788101704 | 30.56° C | 74% | 1019.5 hPa | 4.06 mm | 1.79 m/s, 181° | - | - |
| 1788101104 | 30.56° C | 74% | 1019.5 hPa | 4.06 mm | 2.68 m/s, 115° | - | - |
| 1788099297 | 29.44° C | 77% | 1019.6 hPa | 4.06 mm | 1.79 m/s, 114° | - | - |
| 1788098695 | 28.89° C | 78% | 1019.6 hPa | 4.06 mm | 1.79 m/s, 186° | - | - |
| 1788098092 | 28.89° C | 80% | 1019.5 hPa | 4.06 mm | 1.34 m/s, 126° | - | - |
| 1788097491 | 28.33° C | 80% | 1019.5 hPa | 4.06 mm | 0.89 m/s, 146° | - | - |
| 1788096883 | 28.33° C | 83% | 1019.6 hPa | 4.06 mm | 0 m/s | - | - |
| 1788096264 | 27.22° C | 84% | 1019.6 hPa | 4.06 mm | 0 m/s | - | - |
| 1788095662 | 27.22° C | 86% | 1019.8 hPa | 4.06 mm | 0.45 m/s, 60° | - | - |
| 1788095061 | 26.67° C | 90% | 1019.5 hPa | 4.06 mm | 0.45 m/s, 60° | - | - |
| 1788094458 | 26.11° C | 92% | 1019.5 hPa | 4.06 mm | 0 m/s | - | - |
| 1788093850 | 25.56° C | 93% | 1019.5 hPa | 4.06 mm | 0.45 m/s, 60° | - | - |
| 1788093249 | 25° C | 93% | 1019.1 hPa | 4.06 mm | 0.45 m/s, 60° | - | - |
| 1788092648 | 24.44° C | 94% | 1019.2 hPa | 4.06 mm | 0.45 m/s, 56° | - | - |
| 1788092047 | 23.89° C | 94% | 1019.1 hPa | 4.06 mm | 0.89 m/s, 126° | - | - |
| 1788091439 | 23.33° C | 94% | 1018.9 hPa | 4.06 mm | 0 m/s | - | - |
| 1788090834 | 23.33° C | 93% | 1018.8 hPa | 4.06 mm | 0.89 m/s, 126° | - | - |
| 1788090232 | 22.78° C | 93% | 1018.8 hPa | 4.06 mm | 0.45 m/s, 126° | - | - |
| 1788089628 | 22.78° C | 93% | 1018.5 hPa | 4.06 mm | 0.45 m/s, 126° | - | - |
| 1788089023 | 22.78° C | 93% | 1018.5 hPa | 4.06 mm | 0 m/s | - | - |
| 1788088423 | 22.78° C | 93% | 1018.3 hPa | 4.06 mm | 0.45 m/s, 126° | - | - |
| 1788087818 | 22.78° C | 93% | 1018.3 hPa | 4.06 mm | 0.45 m/s, 126° | - | - |
* Rain latest 24 hours (hover to see other rain measurements)
** Current wind speed in m/s (hover to see current wind gust speed)